Stratford, New Hampshire
Current Conditions -  °F | °C
As of 1:52 PM on Monday 22 Dec 2014 (Local Time) from KBML Reporting Station
Overcast Overcast  
Wind Chill: 33°   Ceiling: 3300
Heat Index: 33°   Visibility: 10mi
Dew Point: 24°   Wind: 0mph
Humidity: 70%   Direction: NA
Pressure: 30.3"   Gusts: NA
Location:  44.7189°N, 71.4659°W
Report Text: KBML 221852Z AUTO 00000KT 10SM OVC033 01/M04 A3030 RMK AO2 SLP280 T00061044
Loading
Personal Weather Stations






























Interactive Weather Map New forecast layout! Learn more

10-Day Weather Forecast

Advertisements
Track Severe Weather on mobile